createdAt,value
2022-10-28T00:00:41.302Z,52.20
2022-10-28T00:03:14.817Z,52.40
2022-10-28T00:05:48.329Z,52.90
2022-10-28T00:08:21.832Z,53.60
2022-10-28T00:11:02.469Z,54.20
2022-10-28T00:13:36.320Z,54.80
2022-10-28T00:16:12.196Z,55.00
2022-10-28T00:18:46.026Z,55.30
2022-10-28T00:21:21.439Z,55.60
2022-10-28T00:23:55.462Z,55.80
2022-10-28T00:26:30.072Z,56.00
2022-10-28T00:29:05.176Z,56.20
2022-10-28T00:31:40.234Z,56.40
2022-10-28T00:34:14.789Z,56.40
2022-10-28T00:36:48.831Z,56.60
2022-10-28T00:39:23.509Z,56.80
2022-10-28T00:41:58.541Z,56.90
2022-10-28T00:44:50.676Z,57.10
2022-10-28T00:47:33.243Z,57.10
2022-10-28T00:50:19.883Z,57.20
2022-10-28T00:52:54.630Z,57.10
2022-10-28T00:55:29.142Z,57.20
2022-10-28T00:58:04.270Z,57.20
2022-10-28T01:00:37.832Z,57.20
2022-10-28T01:03:12.932Z,57.20
2022-10-28T01:05:48.547Z,57.20
2022-10-28T01:08:22.150Z,57.20
2022-10-28T01:11:03.153Z,57.70
2022-10-28T01:13:40.763Z,57.30
2022-10-28T01:16:18.975Z,57.20
2022-10-28T01:18:59.759Z,57.00
2022-10-28T01:21:59.758Z,57.30
2022-10-28T01:24:48.491Z,57.50
2022-10-28T01:27:37.677Z,57.40
2022-10-28T01:30:13.057Z,57.50
2022-10-28T01:32:53.627Z,57.80
2022-10-28T01:38:20.011Z,57.70
2022-10-28T01:40:56.053Z,57.80
2022-10-28T01:43:30.664Z,58.00
2022-10-28T01:46:07.328Z,58.10
2022-10-28T01:48:43.336Z,58.00
2022-10-28T01:51:20.847Z,58.10
2022-10-28T01:53:55.107Z,58.30
2022-10-28T01:56:30.607Z,58.20
2022-10-28T01:59:04.736Z,58.40
2022-10-28T02:01:38.422Z,58.40
2022-10-28T02:04:13.584Z,58.50
2022-10-28T02:06:48.664Z,58.90
2022-10-28T02:09:28.817Z,58.70
2022-10-28T02:12:09.548Z,58.80
2022-10-28T02:14:49.768Z,58.80
2022-10-28T02:17:27.957Z,58.60
2022-10-28T02:20:08.910Z,58.60
2022-10-28T02:22:47.411Z,58.90
2022-10-28T02:25:22.402Z,58.70
2022-10-28T02:27:59.394Z,58.80
2022-10-28T02:30:35.311Z,59.00
2022-10-28T02:33:10.747Z,59.10
2022-10-28T02:35:47.500Z,59.20
2022-10-28T02:38:22.802Z,59.10
2022-10-28T02:41:00.684Z,59.00
2022-10-28T02:43:36.169Z,59.00
2022-10-28T02:46:10.935Z,59.10
2022-10-28T02:48:46.557Z,59.20
2022-10-28T02:51:23.913Z,59.40
2022-10-28T02:53:59.946Z,59.50
2022-10-28T02:56:36.131Z,59.30
2022-10-28T02:59:13.700Z,59.30
2022-10-28T03:01:47.477Z,59.40
2022-10-28T03:04:21.414Z,59.40
2022-10-28T03:06:56.499Z,59.60
2022-10-28T03:09:30.058Z,59.60
2022-10-28T03:12:03.781Z,59.50
2022-10-28T03:14:37.565Z,59.40
2022-10-28T03:17:11.093Z,59.70
2022-10-28T03:19:44.729Z,59.50
2022-10-28T03:22:19.721Z,59.70
2022-10-28T03:24:53.484Z,59.60
2022-10-28T03:27:27.255Z,59.70
2022-10-28T03:30:00.955Z,59.70
2022-10-28T03:32:34.652Z,59.80
2022-10-28T03:35:09.023Z,59.70
2022-10-28T03:37:44.827Z,59.80
2022-10-28T03:40:18.470Z,59.70
2022-10-28T03:42:52.436Z,59.60
2022-10-28T03:45:26.405Z,59.80
2022-10-28T03:47:59.966Z,59.80
2022-10-28T03:50:33.858Z,59.80
2022-10-28T03:53:08.939Z,59.70
2022-10-28T03:55:42.502Z,59.70
2022-10-28T03:58:16.150Z,59.60
2022-10-28T04:00:50.037Z,59.70
2022-10-28T04:03:24.207Z,59.80
2022-10-28T04:05:57.982Z,60.10
2022-10-28T04:08:32.976Z,59.70
2022-10-28T04:11:06.679Z,59.90
2022-10-28T04:13:40.259Z,59.90
2022-10-28T04:16:13.935Z,59.90
2022-10-28T04:18:47.633Z,60.10
2022-10-28T04:21:21.344Z,60.10
2022-10-28T04:23:56.349Z,60.00
2022-10-28T04:26:31.991Z,60.10
2022-10-28T04:29:05.663Z,60.00
2022-10-28T04:31:39.337Z,60.00
2022-10-28T04:34:13.322Z,60.00
2022-10-28T04:36:46.863Z,60.10
2022-10-28T04:39:21.923Z,60.10
2022-10-28T04:41:58.494Z,60.10
2022-10-28T04:44:32.159Z,60.10
2022-10-28T04:47:06.030Z,60.10
2022-10-28T04:49:39.594Z,60.30
2022-10-28T04:52:15.696Z,60.10
2022-10-28T04:54:51.258Z,60.00
2022-10-28T04:57:24.848Z,60.00
2022-10-28T04:59:58.397Z,60.00
2022-10-28T05:02:32.046Z,59.90
2022-10-28T05:05:06.089Z,59.90
2022-10-28T05:07:39.671Z,59.80
2022-10-28T05:10:15.627Z,59.90
2022-10-28T05:12:49.166Z,60.00
2022-10-28T05:15:22.672Z,60.10
2022-10-28T05:17:56.535Z,59.80
2022-10-28T05:20:30.309Z,59.70
2022-10-28T05:23:03.881Z,59.10
2022-10-28T05:25:38.830Z,58.80
2022-10-28T05:28:12.384Z,57.70
2022-10-28T05:30:46.275Z,56.10
2022-10-28T05:33:19.805Z,56.40
2022-10-28T05:35:53.549Z,55.60
2022-10-28T05:38:27.116Z,55.10
2022-10-28T05:41:03.552Z,54.40
2022-10-28T05:43:37.080Z,54.60
2022-10-28T05:46:10.834Z,54.70
2022-10-28T05:48:44.343Z,54.60
2022-10-28T05:51:17.894Z,54.70
2022-10-28T05:53:51.578Z,54.60
2022-10-28T05:56:26.508Z,54.60
2022-10-28T05:59:00.067Z,54.70
2022-10-28T06:01:33.648Z,55.00
2022-10-28T06:04:07.319Z,54.20
2022-10-28T06:06:41.073Z,54.30
2022-10-28T06:09:14.603Z,54.20
2022-10-28T06:11:48.275Z,54.10
2022-10-28T06:14:21.875Z,53.90
2022-10-28T06:16:55.420Z,54.00
2022-10-28T06:19:29.021Z,53.90
2022-10-28T06:22:02.572Z,47.90
2022-10-28T06:24:36.118Z,44.50
2022-10-28T06:27:11.062Z,44.20
2022-10-28T06:29:44.593Z,43.30
2022-10-28T06:32:18.102Z,44.60
2022-10-28T06:34:51.582Z,45.60
2022-10-28T06:37:25.120Z,46.00
2022-10-28T06:39:59.396Z,45.90
2022-10-28T06:42:34.379Z,45.70
2022-10-28T06:45:08.243Z,45.90
2022-10-28T06:47:43.377Z,47.10
2022-10-28T06:50:17.023Z,46.90
2022-10-28T06:52:50.642Z,46.30
2022-10-28T06:55:24.470Z,46.90
2022-10-28T06:58:02.132Z,46.70
2022-10-28T07:00:35.689Z,47.20
2022-10-28T07:03:10.500Z,47.20
2022-10-28T07:05:44.196Z,47.50
2022-10-28T07:08:18.067Z,47.60
2022-10-28T07:10:54.865Z,46.70
2022-10-28T07:13:30.209Z,47.60
2022-10-28T07:16:03.752Z,47.60
2022-10-28T07:18:37.277Z,47.70
2022-10-28T07:21:10.803Z,47.60
2022-10-28T07:23:44.313Z,47.70
2022-10-28T07:26:17.813Z,47.50
2022-10-28T07:28:52.707Z,47.60
2022-10-28T07:31:27.860Z,47.70
2022-10-28T07:34:01.406Z,47.70
2022-10-28T07:36:34.957Z,47.50
2022-10-28T07:39:08.538Z,47.80
2022-10-28T07:41:42.007Z,47.80
2022-10-28T07:44:16.975Z,47.70
2022-10-28T07:46:54.225Z,48.00
2022-10-28T07:49:30.841Z,47.60
2022-10-28T07:52:04.393Z,47.10
2022-10-28T07:54:37.889Z,47.30
2022-10-28T07:57:12.494Z,47.20
2022-10-28T07:59:47.444Z,47.80
2022-10-28T08:02:22.123Z,47.50
2022-10-28T08:04:56.920Z,47.80
2022-10-28T08:07:34.813Z,48.00
2022-10-28T08:10:11.412Z,48.10
2022-10-28T08:12:46.448Z,48.10
2022-10-28T08:15:23.762Z,48.40
2022-10-28T08:17:57.599Z,48.60
2022-10-28T08:20:31.249Z,48.50
2022-10-28T08:23:06.737Z,48.60
2022-10-28T08:25:48.774Z,48.40
2022-10-28T08:28:22.572Z,48.50
2022-10-28T08:31:09.209Z,48.40
2022-10-28T08:33:44.525Z,48.60
2022-10-28T08:36:18.190Z,48.70
2022-10-28T08:38:51.832Z,48.80
2022-10-28T08:41:30.138Z,48.70
2022-10-28T08:44:12.305Z,48.70
2022-10-28T08:46:53.692Z,48.70
2022-10-28T08:49:27.403Z,48.70
2022-10-28T08:52:04.070Z,48.70
2022-10-28T08:54:41.577Z,48.70
2022-10-28T08:57:18.380Z,48.70
2022-10-28T08:59:53.221Z,48.70
2022-10-28T09:02:30.706Z,48.90
2022-10-28T09:05:07.236Z,49.10
2022-10-28T09:07:40.815Z,49.70
2022-10-28T09:10:15.697Z,50.10
2022-10-28T09:12:53.898Z,50.20
2022-10-28T09:15:32.078Z,50.70
2022-10-28T09:18:14.074Z,50.70
2022-10-28T09:20:53.139Z,50.20
2022-10-28T09:23:30.063Z,50.40
2022-10-28T09:26:10.117Z,50.40
2022-10-28T09:28:50.033Z,50.30
2022-10-28T09:31:29.040Z,50.20
2022-10-28T09:34:09.169Z,50.30
2022-10-28T09:36:44.685Z,50.20
2022-10-28T09:39:20.900Z,50.20
2022-10-28T09:41:59.743Z,50.30
2022-10-28T09:44:38.101Z,50.30
2022-10-28T09:47:16.404Z,50.20
2022-10-28T09:49:52.987Z,50.20
2022-10-28T09:52:28.419Z,50.20
2022-10-28T09:55:07.601Z,50.20
2022-10-28T09:57:41.161Z,50.10
2022-10-28T10:00:15.761Z,50.10
2022-10-28T10:02:51.000Z,50.00
2022-10-28T10:05:26.355Z,50.10
2022-10-28T10:08:03.012Z,50.10
2022-10-28T10:10:43.897Z,50.10
2022-10-28T10:13:18.920Z,50.10
2022-10-28T10:15:54.341Z,50.10
2022-10-28T10:18:30.450Z,50.10
2022-10-28T10:21:06.358Z,50.00
2022-10-28T10:26:18.831Z,49.70
2022-10-28T10:28:52.877Z,49.70
2022-10-28T10:31:29.900Z,49.60
2022-10-28T10:34:03.570Z,49.50
2022-10-28T10:36:38.586Z,49.40
2022-10-28T10:39:21.752Z,49.40
2022-10-28T10:41:55.994Z,49.30
2022-10-28T10:44:33.996Z,49.30
2022-10-28T10:47:19.721Z,49.20
2022-10-28T10:49:55.160Z,49.10
2022-10-28T10:52:30.445Z,49.00
2022-10-28T10:55:05.112Z,49.20
2022-10-28T10:57:38.962Z,49.40
2022-10-28T11:00:17.222Z,49.40
2022-10-28T11:02:54.972Z,49.50
2022-10-28T11:05:32.285Z,49.50
2022-10-28T11:08:20.495Z,49.60
2022-10-28T11:11:04.806Z,49.70
2022-10-28T11:13:41.017Z,50.00
2022-10-28T11:16:21.502Z,50.30
2022-10-28T11:18:55.130Z,50.50
2022-10-28T11:21:43.425Z,50.80
2022-10-28T11:24:33.779Z,50.90
2022-10-28T11:27:12.596Z,51.10
2022-10-28T11:29:46.794Z,51.30
2022-10-28T11:32:50.133Z,51.50
2022-10-28T11:35:47.238Z,51.60
2022-10-28T11:38:28.591Z,51.70
2022-10-28T11:41:14.779Z,52.00
2022-10-28T11:43:54.536Z,52.20
2022-10-28T11:46:36.753Z,52.50
2022-10-28T11:49:28.309Z,52.00
2022-10-28T11:52:07.262Z,52.00
2022-10-28T11:54:46.828Z,52.40
2022-10-28T11:57:25.422Z,52.50
2022-10-28T12:00:06.809Z,51.90
2022-10-28T12:02:49.323Z,49.20
2022-10-28T12:05:29.774Z,49.70
2022-10-28T12:08:24.009Z,50.20
2022-10-28T12:11:05.143Z,50.30
2022-10-28T12:13:44.307Z,50.50
2022-10-28T12:16:22.882Z,50.30
2022-10-28T12:18:58.645Z,49.40
2022-10-28T12:24:12.280Z,49.20
2022-10-28T12:26:49.166Z,49.30
2022-10-28T12:29:26.941Z,49.40
2022-10-28T12:32:05.874Z,49.60
2022-10-28T12:34:44.485Z,49.70
2022-10-28T12:37:22.685Z,49.90
2022-10-28T12:39:58.132Z,48.30
2022-10-28T12:42:36.563Z,47.80
2022-10-28T12:45:25.182Z,47.60
2022-10-28T12:48:01.072Z,48.00
2022-10-28T12:50:41.585Z,48.10
2022-10-28T12:53:23.898Z,48.50
2022-10-28T12:55:59.607Z,48.50
2022-10-28T12:58:34.872Z,48.80
2022-10-28T13:01:11.506Z,49.00
2022-10-28T13:03:45.212Z,49.10
2022-10-28T13:06:33.359Z,49.20
2022-10-28T13:09:40.132Z,49.90
2022-10-28T13:12:35.714Z,49.50
2022-10-28T13:15:35.997Z,49.60
2022-10-28T13:18:24.351Z,49.80
2022-10-28T13:21:06.643Z,50.00
2022-10-28T13:23:42.304Z,50.10
2022-10-28T13:26:22.421Z,50.10
2022-10-28T13:28:58.143Z,50.10
2022-10-28T13:31:42.406Z,50.10
2022-10-28T13:34:17.114Z,50.50
2022-10-28T13:36:58.171Z,50.60
2022-10-28T13:39:43.363Z,50.80
2022-10-28T13:42:33.366Z,51.00
2022-10-28T13:45:27.132Z,51.40
2022-10-28T13:48:15.506Z,51.80
2022-10-28T13:50:49.118Z,51.70
2022-10-28T13:53:43.847Z,51.90
2022-10-28T13:56:21.145Z,51.80
2022-10-28T13:58:56.019Z,52.30
2022-10-28T14:01:40.291Z,52.60
2022-10-28T14:04:22.544Z,52.80
2022-10-28T14:07:03.298Z,53.00
2022-10-28T14:09:37.269Z,53.00
2022-10-28T14:12:24.980Z,53.00
2022-10-28T14:15:06.915Z,53.20
2022-10-28T14:17:41.633Z,53.60
2022-10-28T14:20:24.980Z,54.00
2022-10-28T14:22:58.885Z,53.90
2022-10-28T14:26:04.652Z,53.80
2022-10-28T14:28:53.331Z,54.00
2022-10-28T14:31:43.442Z,53.90
2022-10-28T14:34:38.144Z,54.00
2022-10-28T14:37:25.885Z,54.00
2022-10-28T14:40:09.832Z,54.10
2022-10-28T14:42:52.103Z,53.90
2022-10-28T14:45:33.251Z,53.80
2022-10-28T14:48:24.483Z,53.80
2022-10-28T14:50:59.015Z,53.60
2022-10-28T14:53:34.835Z,53.60
2022-10-28T14:56:10.792Z,53.60
2022-10-28T14:58:45.293Z,53.50
2022-10-28T15:01:24.938Z,53.50
2022-10-28T15:04:00.428Z,53.50
2022-10-28T15:06:37.425Z,53.40
2022-10-28T15:09:16.598Z,52.30
2022-10-28T15:11:51.899Z,50.30
2022-10-28T15:14:26.978Z,50.00
2022-10-28T15:17:05.208Z,49.30
2022-10-28T15:19:39.306Z,49.60
2022-10-28T15:22:22.878Z,49.80
2022-10-28T15:24:57.932Z,50.20
2022-10-28T15:27:32.149Z,50.30
2022-10-28T15:30:06.562Z,50.40
2022-10-28T15:32:41.582Z,50.50
2022-10-28T15:35:33.570Z,50.50
2022-10-28T15:38:27.022Z,50.70
2022-10-28T15:41:00.877Z,51.20
2022-10-28T15:43:34.450Z,50.60
2022-10-28T15:46:12.210Z,50.70
2022-10-28T15:48:52.641Z,50.70
2022-10-28T15:51:26.879Z,50.70
2022-10-28T15:54:11.065Z,50.70
2022-10-28T15:56:55.353Z,50.80
2022-10-28T15:59:28.859Z,50.80
2022-10-28T16:02:02.579Z,50.90
2022-10-28T16:04:44.601Z,50.90
2022-10-28T16:07:18.172Z,50.90
2022-10-28T16:09:52.204Z,50.90
2022-10-28T16:12:27.723Z,50.90
2022-10-28T16:15:03.009Z,50.90
2022-10-28T16:17:37.559Z,50.90
2022-10-28T16:20:18.283Z,51.10
2022-10-28T16:22:53.074Z,51.30
2022-10-28T16:25:26.669Z,51.70
2022-10-28T16:28:00.532Z,51.70
2022-10-28T16:30:34.067Z,52.20
2022-10-28T16:33:09.634Z,54.50
2022-10-28T16:35:44.598Z,55.30
2022-10-28T16:38:18.482Z,55.60
2022-10-28T16:40:52.670Z,55.90
2022-10-28T16:43:27.056Z,56.20
2022-10-28T16:46:01.271Z,56.50
2022-10-28T16:48:36.949Z,56.60
2022-10-28T16:51:14.855Z,56.80
2022-10-28T16:53:51.056Z,56.90
2022-10-28T16:56:25.332Z,56.50
2022-10-28T16:58:59.909Z,56.50
2022-10-28T17:01:33.710Z,56.50
2022-10-28T17:04:07.308Z,56.30
2022-10-28T17:06:42.357Z,56.40
2022-10-28T17:09:15.987Z,56.40
2022-10-28T17:11:49.573Z,56.40
2022-10-28T17:14:23.311Z,56.50
2022-10-28T17:16:56.952Z,56.50
2022-10-28T17:19:30.799Z,56.40
2022-10-28T17:22:09.053Z,56.60
2022-10-28T17:24:43.785Z,56.70
2022-10-28T17:27:17.320Z,56.50
2022-10-28T17:29:51.090Z,56.50
2022-10-28T17:32:24.754Z,56.60
2022-10-28T17:34:58.310Z,56.50
2022-10-28T17:37:33.910Z,56.60
2022-10-28T17:40:08.373Z,56.80
2022-10-28T17:42:42.073Z,57.00
2022-10-28T17:45:19.424Z,57.70
2022-10-28T17:47:54.860Z,57.80
2022-10-28T17:50:28.483Z,58.20
2022-10-28T17:53:03.526Z,58.20
2022-10-28T17:55:37.140Z,58.20
2022-10-28T17:58:12.101Z,58.20
2022-10-28T18:00:45.772Z,57.50
2022-10-28T18:03:19.404Z,58.10
2022-10-28T18:05:53.450Z,57.90
2022-10-28T18:08:33.015Z,57.60
2022-10-28T18:11:06.912Z,57.80
2022-10-28T18:13:41.202Z,57.90
2022-10-28T18:16:15.375Z,57.90
2022-10-28T18:18:49.064Z,58.60
2022-10-28T18:21:23.093Z,58.80
2022-10-28T18:24:03.938Z,59.00
2022-10-28T18:26:39.225Z,58.60
2022-10-28T18:29:13.332Z,58.90
2022-10-28T18:31:48.321Z,58.60
2022-10-28T18:34:23.864Z,59.40
2022-10-28T18:36:57.671Z,58.80
2022-10-28T18:39:32.688Z,58.60
2022-10-28T18:42:06.235Z,58.60
2022-10-28T18:44:41.578Z,58.50
2022-10-28T18:47:15.073Z,58.50
2022-10-28T18:49:48.585Z,58.30
2022-10-28T18:52:22.134Z,58.50
2022-10-28T18:54:57.072Z,58.40
2022-10-28T18:57:30.593Z,58.40
2022-10-28T19:00:20.669Z,58.30
2022-10-28T19:05:33.186Z,58.30
2022-10-28T19:08:06.717Z,57.90
2022-10-28T19:10:41.716Z,58.00
2022-10-28T19:13:15.269Z,58.20
2022-10-28T19:15:49.034Z,58.10
2022-10-28T19:18:22.640Z,57.90
2022-10-28T19:21:04.353Z,58.10
2022-10-28T19:23:38.499Z,58.30
2022-10-28T19:26:13.890Z,58.10
2022-10-28T19:28:48.511Z,58.20
2022-10-28T19:31:23.908Z,58.40
2022-10-28T19:33:57.547Z,58.20
2022-10-28T19:36:31.674Z,58.20
2022-10-28T19:39:05.876Z,58.30
2022-10-28T19:41:41.493Z,58.50
2022-10-28T19:44:15.046Z,58.60
2022-10-28T19:46:48.529Z,58.60
2022-10-28T19:49:25.592Z,58.60
2022-10-28T19:52:01.670Z,59.20
2022-10-28T19:54:38.821Z,58.70
2022-10-28T19:59:52.771Z,58.50
2022-10-28T20:02:26.500Z,58.70
2022-10-28T20:05:00.258Z,58.70
2022-10-28T20:07:33.873Z,58.60
2022-10-28T20:10:07.979Z,58.60
2022-10-28T20:12:42.952Z,58.60
2022-10-28T20:15:16.617Z,58.70
2022-10-28T20:17:50.154Z,58.60
2022-10-28T20:20:23.703Z,58.30
2022-10-28T20:22:57.539Z,58.20
2022-10-28T20:25:31.182Z,58.10
2022-10-28T20:28:06.178Z,58.00
2022-10-28T20:30:39.801Z,58.00
2022-10-28T20:33:13.384Z,58.10
2022-10-28T20:35:46.982Z,58.10
2022-10-28T20:38:21.189Z,58.40
2022-10-28T20:40:56.454Z,58.30
2022-10-28T20:43:31.819Z,58.30
2022-10-28T20:46:07.210Z,58.20
2022-10-28T20:48:40.773Z,58.30
2022-10-28T20:51:14.361Z,58.10
2022-10-28T20:53:48.123Z,58.10
2022-10-28T20:56:23.538Z,58.10
2022-10-28T20:58:59.090Z,58.00
2022-10-28T21:01:33.551Z,58.10
2022-10-28T21:04:09.374Z,58.00
2022-10-28T21:06:42.944Z,57.90
2022-10-28T21:09:16.794Z,57.70
2022-10-28T21:11:50.399Z,57.60
2022-10-28T21:14:25.458Z,57.50
2022-10-28T21:17:01.765Z,57.30
2022-10-28T21:19:35.448Z,57.20
2022-10-28T21:22:09.103Z,57.10
2022-10-28T21:24:42.721Z,56.90
2022-10-28T21:27:16.287Z,56.80
2022-10-28T21:29:51.337Z,57.30
2022-10-28T21:32:25.169Z,56.60
2022-10-28T21:34:58.762Z,56.60
2022-10-28T21:37:32.433Z,56.40
2022-10-28T21:40:06.631Z,56.30
2022-10-28T21:42:40.191Z,56.10
2022-10-28T21:45:17.902Z,56.10
2022-10-28T21:47:51.445Z,56.10
2022-10-28T21:50:25.039Z,55.90
2022-10-28T21:52:58.570Z,55.80
2022-10-28T21:55:45.933Z,55.80
2022-10-28T21:58:20.507Z,55.70
2022-10-28T22:00:55.438Z,55.70
2022-10-28T22:03:28.971Z,55.60
2022-10-28T22:06:02.486Z,55.60
2022-10-28T22:08:36.002Z,55.60
2022-10-28T22:11:11.142Z,55.60
2022-10-28T22:13:44.778Z,55.60
2022-10-28T22:16:19.788Z,55.60
2022-10-28T22:18:53.469Z,55.40
2022-10-28T22:21:28.349Z,55.30
2022-10-28T22:24:01.984Z,55.40
2022-10-28T22:26:35.544Z,55.30
2022-10-28T22:29:09.213Z,55.20
2022-10-28T22:31:44.210Z,55.40
2022-10-28T22:34:17.886Z,55.30
2022-10-28T22:36:51.472Z,55.20
2022-10-28T22:39:25.186Z,55.20
2022-10-28T22:41:58.765Z,55.20
2022-10-28T22:44:32.415Z,55.40
2022-10-28T22:47:07.658Z,55.20
2022-10-28T22:49:41.293Z,55.10
2022-10-28T22:52:14.895Z,54.80
2022-10-28T22:54:48.528Z,54.80
2022-10-28T22:57:22.158Z,54.80
2022-10-28T22:59:55.808Z,54.80
2022-10-28T23:02:31.837Z,54.80
2022-10-28T23:05:05.795Z,54.80
2022-10-28T23:07:39.429Z,54.70
2022-10-28T23:10:13.014Z,54.80
2022-10-28T23:12:46.776Z,54.80
2022-10-28T23:15:20.340Z,54.90
2022-10-28T23:17:55.981Z,54.80
2022-10-28T23:20:30.507Z,54.40
2022-10-28T23:23:04.531Z,54.40
2022-10-28T23:25:38.303Z,54.30
2022-10-28T23:28:12.006Z,54.30
2022-10-28T23:30:45.625Z,54.20
2022-10-28T23:33:20.601Z,53.90
2022-10-28T23:35:57.372Z,53.90
2022-10-28T23:38:31.205Z,53.80
2022-10-28T23:41:05.484Z,53.70
2022-10-28T23:43:39.106Z,53.60
2022-10-28T23:46:13.093Z,53.60
2022-10-28T23:48:48.289Z,53.90
2022-10-28T23:51:21.955Z,53.80
2022-10-28T23:53:55.535Z,53.80
2022-10-28T23:56:29.245Z,53.90
2022-10-28T23:59:02.809Z,54.00
